sensor_id;sensor_type;location;lat;lon;timestamp;temperature;humidity
19898;DHT22;10111;50.814;4.572;2023-07-13T00:00:04;17.50;99.90
19898;DHT22;10111;50.814;4.572;2023-07-13T00:02:34;17.40;99.90
19898;DHT22;10111;50.814;4.572;2023-07-13T00:05:00;17.40;99.90
19898;DHT22;10111;50.814;4.572;2023-07-13T00:07:26;17.30;99.90
19898;DHT22;10111;50.814;4.572;2023-07-13T00:09:52;17.30;99.90
19898;DHT22;10111;50.814;4.572;2023-07-13T00:12:36;17.30;99.90
19898;DHT22;10111;50.814;4.572;2023-07-13T00:15:05;17.20;99.90
19898;DHT22;10111;50.814;4.572;2023-07-13T00:17:31;17.20;99.90
19898;DHT22;10111;50.814;4.572;2023-07-13T00:19:57;17.20;99.90
19898;DHT22;10111;50.814;4.572;2023-07-13T00:22:24;17.20;99.90
19898;DHT22;10111;50.814;4.572;2023-07-13T00:24:54;17.20;99.90
19898;DHT22;10111;50.814;4.572;2023-07-13T00:27:23;17.20;99.90
19898;DHT22;10111;50.814;4.572;2023-07-13T00:29:49;17.20;99.90
19898;DHT22;10111;50.814;4.572;2023-07-13T00:32:14;17.10;99.90
19898;DHT22;10111;50.814;4.572;2023-07-13T00:34:40;17.10;99.90
19898;DHT22;10111;50.814;4.572;2023-07-13T00:37:06;17.20;99.90
19898;DHT22;10111;50.814;4.572;2023-07-13T00:39:33;17.10;99.90
19898;DHT22;10111;50.814;4.572;2023-07-13T00:42:00;17.10;99.90
19898;DHT22;10111;50.814;4.572;2023-07-13T00:44:27;17.10;99.90
19898;DHT22;10111;50.814;4.572;2023-07-13T00:46:52;17.10;99.90
19898;DHT22;10111;50.814;4.572;2023-07-13T00:49:21;17.10;99.90
19898;DHT22;10111;50.814;4.572;2023-07-13T00:52:05;17.10;99.90
19898;DHT22;10111;50.814;4.572;2023-07-13T00:54:39;17.00;99.90
19898;DHT22;10111;50.814;4.572;2023-07-13T00:57:09;17.00;99.90
19898;DHT22;10111;50.814;4.572;2023-07-13T00:59:37;17.00;99.90
19898;DHT22;10111;50.814;4.572;2023-07-13T01:02:05;16.90;99.90
19898;DHT22;10111;50.814;4.572;2023-07-13T01:04:30;16.90;99.90
19898;DHT22;10111;50.814;4.572;2023-07-13T01:06:57;16.90;99.90
19898;DHT22;10111;50.814;4.572;2023-07-13T01:09:23;16.90;99.90
19898;DHT22;10111;50.814;4.572;2023-07-13T01:11:49;16.80;99.90
19898;DHT22;10111;50.814;4.572;2023-07-13T01:14:15;16.80;99.90
19898;DHT22;10111;50.814;4.572;2023-07-13T01:16:43;16.80;99.90
19898;DHT22;10111;50.814;4.572;2023-07-13T01:21:51;16.80;99.90
19898;DHT22;10111;50.814;4.572;2023-07-13T01:24:17;16.80;99.90
19898;DHT22;10111;50.814;4.572;2023-07-13T01:26:43;16.80;99.90
19898;DHT22;10111;50.814;4.572;2023-07-13T01:29:09;16.80;99.90
19898;DHT22;10111;50.814;4.572;2023-07-13T01:31:34;16.70;99.90
19898;DHT22;10111;50.814;4.572;2023-07-13T01:34:00;16.70;99.90
19898;DHT22;10111;50.814;4.572;2023-07-13T01:36:26;16.70;99.90
19898;DHT22;10111;50.814;4.572;2023-07-13T01:38:51;16.70;99.90
19898;DHT22;10111;50.814;4.572;2023-07-13T01:41:17;16.70;99.90
19898;DHT22;10111;50.814;4.572;2023-07-13T01:43:43;16.60;99.90
19898;DHT22;10111;50.814;4.572;2023-07-13T01:46:08;16.50;99.90
19898;DHT22;10111;50.814;4.572;2023-07-13T01:48:34;16.50;99.90
19898;DHT22;10111;50.814;4.572;2023-07-13T01:51:00;16.50;99.90
19898;DHT22;10111;50.814;4.572;2023-07-13T01:53:25;16.40;99.90
19898;DHT22;10111;50.814;4.572;2023-07-13T01:55:52;16.40;99.90
19898;DHT22;10111;50.814;4.572;2023-07-13T01:58:17;16.40;99.90
19898;DHT22;10111;50.814;4.572;2023-07-13T02:00:43;16.30;99.90
19898;DHT22;10111;50.814;4.572;2023-07-13T02:03:09;16.30;99.90
19898;DHT22;10111;50.814;4.572;2023-07-13T02:05:35;16.30;99.90
19898;DHT22;10111;50.814;4.572;2023-07-13T02:08:01;16.30;99.90
19898;DHT22;10111;50.814;4.572;2023-07-13T02:10:27;16.20;99.90
19898;DHT22;10111;50.814;4.572;2023-07-13T02:12:53;16.20;99.90
19898;DHT22;10111;50.814;4.572;2023-07-13T02:15:19;16.30;99.90
19898;DHT22;10111;50.814;4.572;2023-07-13T02:17:45;16.30;99.90
19898;DHT22;10111;50.814;4.572;2023-07-13T02:20:11;16.20;99.90
19898;DHT22;10111;50.814;4.572;2023-07-13T02:22:36;16.20;99.90
19898;DHT22;10111;50.814;4.572;2023-07-13T02:25:02;16.20;99.90
19898;DHT22;10111;50.814;4.572;2023-07-13T02:27:28;16.10;99.90
19898;DHT22;10111;50.814;4.572;2023-07-13T02:29:53;16.10;99.90
19898;DHT22;10111;50.814;4.572;2023-07-13T02:32:19;16.10;99.90
19898;DHT22;10111;50.814;4.572;2023-07-13T02:34:45;16.10;99.90
19898;DHT22;10111;50.814;4.572;2023-07-13T02:37:10;16.10;99.90
19898;DHT22;10111;50.814;4.572;2023-07-13T02:39:36;16.10;99.90
19898;DHT22;10111;50.814;4.572;2023-07-13T02:42:02;16.20;99.90
19898;DHT22;10111;50.814;4.572;2023-07-13T02:44:28;16.20;99.90
19898;DHT22;10111;50.814;4.572;2023-07-13T02:46:54;16.20;99.90
19898;DHT22;10111;50.814;4.572;2023-07-13T02:49:20;16.10;99.90
19898;DHT22;10111;50.814;4.572;2023-07-13T02:51:45;16.10;99.90
19898;DHT22;10111;50.814;4.572;2023-07-13T02:54:11;16.10;99.90
19898;DHT22;10111;50.814;4.572;2023-07-13T02:56:39;16.10;99.90
19898;DHT22;10111;50.814;4.572;2023-07-13T02:59:04;16.10;99.90
19898;DHT22;10111;50.814;4.572;2023-07-13T03:01:30;16.10;99.90
19898;DHT22;10111;50.814;4.572;2023-07-13T03:03:58;16.10;99.90
19898;DHT22;10111;50.814;4.572;2023-07-13T03:06:23;16.00;99.90
19898;DHT22;10111;50.814;4.572;2023-07-13T03:08:49;16.00;99.90
19898;DHT22;10111;50.814;4.572;2023-07-13T03:11:18;16.00;99.90
19898;DHT22;10111;50.814;4.572;2023-07-13T03:13:44;16.00;99.90
19898;DHT22;10111;50.814;4.572;2023-07-13T03:16:10;16.00;99.90
19898;DHT22;10111;50.814;4.572;2023-07-13T03:18:37;16.00;99.90
19898;DHT22;10111;50.814;4.572;2023-07-13T03:21:04;16.00;99.90
19898;DHT22;10111;50.814;4.572;2023-07-13T03:23:31;16.10;99.90
19898;DHT22;10111;50.814;4.572;2023-07-13T03:26:03;16.10;99.90
19898;DHT22;10111;50.814;4.572;2023-07-13T03:28:29;16.10;99.90
19898;DHT22;10111;50.814;4.572;2023-07-13T03:31:07;16.10;99.90
19898;DHT22;10111;50.814;4.572;2023-07-13T03:33:34;16.10;99.90
19898;DHT22;10111;50.814;4.572;2023-07-13T03:35:59;16.00;99.90
19898;DHT22;10111;50.814;4.572;2023-07-13T03:38:25;16.00;99.90
19898;DHT22;10111;50.814;4.572;2023-07-13T03:40:52;16.00;99.90
19898;DHT22;10111;50.814;4.572;2023-07-13T03:43:18;16.00;99.90
19898;DHT22;10111;50.814;4.572;2023-07-13T03:45:43;16.00;99.90
19898;DHT22;10111;50.814;4.572;2023-07-13T03:48:09;16.00;99.90
19898;DHT22;10111;50.814;4.572;2023-07-13T03:50:35;16.00;99.90
19898;DHT22;10111;50.814;4.572;2023-07-13T03:53:00;15.90;99.90
19898;DHT22;10111;50.814;4.572;2023-07-13T03:55:26;15.90;99.90
19898;DHT22;10111;50.814;4.572;2023-07-13T03:57:58;15.90;99.90
19898;DHT22;10111;50.814;4.572;2023-07-13T04:00:24;15.80;99.90
19898;DHT22;10111;50.814;4.572;2023-07-13T04:02:50;15.90;99.90
19898;DHT22;10111;50.814;4.572;2023-07-13T04:05:16;15.90;99.90
19898;DHT22;10111;50.814;4.572;2023-07-13T04:07:41;16.10;99.90
19898;DHT22;10111;50.814;4.572;2023-07-13T04:10:07;16.10;99.90
19898;DHT22;10111;50.814;4.572;2023-07-13T04:12:33;16.10;99.90
19898;DHT22;10111;50.814;4.572;2023-07-13T04:14:58;16.30;99.90
19898;DHT22;10111;50.814;4.572;2023-07-13T04:17:24;16.30;99.90
19898;DHT22;10111;50.814;4.572;2023-07-13T04:19:50;16.40;99.90
19898;DHT22;10111;50.814;4.572;2023-07-13T04:22:16;16.40;99.90
19898;DHT22;10111;50.814;4.572;2023-07-13T04:24:41;16.50;99.90
19898;DHT22;10111;50.814;4.572;2023-07-13T04:27:07;16.50;99.90
19898;DHT22;10111;50.814;4.572;2023-07-13T04:29:33;16.60;99.90
19898;DHT22;10111;50.814;4.572;2023-07-13T04:31:59;16.60;99.90
19898;DHT22;10111;50.814;4.572;2023-07-13T04:34:24;16.70;99.90
19898;DHT22;10111;50.814;4.572;2023-07-13T04:36:50;16.90;99.90
19898;DHT22;10111;50.814;4.572;2023-07-13T04:39:16;16.90;99.90
19898;DHT22;10111;50.814;4.572;2023-07-13T04:41:41;16.90;99.90
19898;DHT22;10111;50.814;4.572;2023-07-13T04:44:07;16.90;99.90
19898;DHT22;10111;50.814;4.572;2023-07-13T04:46:33;17.00;99.90
19898;DHT22;10111;50.814;4.572;2023-07-13T04:48:58;17.00;99.90
19898;DHT22;10111;50.814;4.572;2023-07-13T04:51:24;17.10;99.90
19898;DHT22;10111;50.814;4.572;2023-07-13T04:53:51;17.10;99.90
19898;DHT22;10111;50.814;4.572;2023-07-13T04:56:16;17.10;99.90
19898;DHT22;10111;50.814;4.572;2023-07-13T04:58:42;17.30;99.90
19898;DHT22;10111;50.814;4.572;2023-07-13T05:01:09;17.50;99.90
19898;DHT22;10111;50.814;4.572;2023-07-13T05:03:34;17.50;99.90
19898;DHT22;10111;50.814;4.572;2023-07-13T05:06:06;17.60;99.90
19898;DHT22;10111;50.814;4.572;2023-07-13T05:08:32;17.60;99.90
19898;DHT22;10111;50.814;4.572;2023-07-13T05:11:03;17.70;99.90
19898;DHT22;10111;50.814;4.572;2023-07-13T05:13:29;17.60;99.90
19898;DHT22;10111;50.814;4.572;2023-07-13T05:16:00;17.70;99.90
19898;DHT22;10111;50.814;4.572;2023-07-13T05:18:26;17.70;99.90
19898;DHT22;10111;50.814;4.572;2023-07-13T05:21:07;17.90;99.90
19898;DHT22;10111;50.814;4.572;2023-07-13T05:23:34;17.90;99.90
19898;DHT22;10111;50.814;4.572;2023-07-13T05:26:00;18.00;99.90
19898;DHT22;10111;50.814;4.572;2023-07-13T05:28:27;18.00;99.90
19898;DHT22;10111;50.814;4.572;2023-07-13T05:30:52;18.00;99.90
19898;DHT22;10111;50.814;4.572;2023-07-13T05:33:20;18.10;99.90
19898;DHT22;10111;50.814;4.572;2023-07-13T05:35:46;18.10;99.90
19898;DHT22;10111;50.814;4.572;2023-07-13T05:38:11;18.10;99.90
19898;DHT22;10111;50.814;4.572;2023-07-13T05:40:37;18.20;99.90
19898;DHT22;10111;50.814;4.572;2023-07-13T05:43:03;18.30;99.90
19898;DHT22;10111;50.814;4.572;2023-07-13T05:45:29;18.50;99.90
19898;DHT22;10111;50.814;4.572;2023-07-13T05:47:54;18.40;99.90
19898;DHT22;10111;50.814;4.572;2023-07-13T05:50:20;18.50;99.90
19898;DHT22;10111;50.814;4.572;2023-07-13T05:52:46;18.40;99.90
19898;DHT22;10111;50.814;4.572;2023-07-13T05:55:12;18.40;99.90
19898;DHT22;10111;50.814;4.572;2023-07-13T05:57:38;18.40;99.90
19898;DHT22;10111;50.814;4.572;2023-07-13T06:00:04;18.40;99.90
19898;DHT22;10111;50.814;4.572;2023-07-13T06:02:30;18.30;99.90
19898;DHT22;10111;50.814;4.572;2023-07-13T06:04:56;18.50;99.90
19898;DHT22;10111;50.814;4.572;2023-07-13T06:07:21;18.50;99.90
19898;DHT22;10111;50.814;4.572;2023-07-13T06:09:47;18.50;99.90
19898;DHT22;10111;50.814;4.572;2023-07-13T06:12:13;18.60;99.90
19898;DHT22;10111;50.814;4.572;2023-07-13T06:14:38;18.60;99.90
19898;DHT22;10111;50.814;4.572;2023-07-13T06:17:04;18.70;99.90
19898;DHT22;10111;50.814;4.572;2023-07-13T06:19:30;18.70;99.90
19898;DHT22;10111;50.814;4.572;2023-07-13T06:21:56;18.70;99.90
19898;DHT22;10111;50.814;4.572;2023-07-13T06:24:22;18.80;99.90
19898;DHT22;10111;50.814;4.572;2023-07-13T06:26:47;18.90;99.90
19898;DHT22;10111;50.814;4.572;2023-07-13T06:29:13;19.00;99.90
19898;DHT22;10111;50.814;4.572;2023-07-13T06:31:38;19.00;99.90
19898;DHT22;10111;50.814;4.572;2023-07-13T06:34:04;19.10;99.90
19898;DHT22;10111;50.814;4.572;2023-07-13T06:36:30;19.30;99.90
19898;DHT22;10111;50.814;4.572;2023-07-13T06:38:55;19.30;99.90
19898;DHT22;10111;50.814;4.572;2023-07-13T06:41:21;19.30;99.90
19898;DHT22;10111;50.814;4.572;2023-07-13T06:43:47;19.50;99.90
19898;DHT22;10111;50.814;4.572;2023-07-13T06:46:13;19.50;99.90
19898;DHT22;10111;50.814;4.572;2023-07-13T06:48:39;19.60;99.90
19898;DHT22;10111;50.814;4.572;2023-07-13T06:51:04;19.70;99.90
19898;DHT22;10111;50.814;4.572;2023-07-13T06:53:30;19.90;99.90
19898;DHT22;10111;50.814;4.572;2023-07-13T06:55:56;20.00;99.90
19898;DHT22;10111;50.814;4.572;2023-07-13T06:58:22;20.20;99.90
19898;DHT22;10111;50.814;4.572;2023-07-13T07:00:51;20.10;99.90
19898;DHT22;10111;50.814;4.572;2023-07-13T07:03:17;20.10;99.90
19898;DHT22;10111;50.814;4.572;2023-07-13T07:05:43;20.20;99.90
19898;DHT22;10111;50.814;4.572;2023-07-13T07:08:08;20.30;99.90
19898;DHT22;10111;50.814;4.572;2023-07-13T07:10:35;20.50;99.90
19898;DHT22;10111;50.814;4.572;2023-07-13T07:13:01;20.70;99.90
19898;DHT22;10111;50.814;4.572;2023-07-13T07:15:27;20.70;99.90
19898;DHT22;10111;50.814;4.572;2023-07-13T07:17:53;20.80;99.90
19898;DHT22;10111;50.814;4.572;2023-07-13T07:20:18;21.00;99.90
19898;DHT22;10111;50.814;4.572;2023-07-13T07:22:45;21.00;99.90
19898;DHT22;10111;50.814;4.572;2023-07-13T07:25:11;21.10;99.90
19898;DHT22;10111;50.814;4.572;2023-07-13T07:27:37;21.30;99.90
19898;DHT22;10111;50.814;4.572;2023-07-13T07:30:03;21.40;99.90
19898;DHT22;10111;50.814;4.572;2023-07-13T07:32:30;21.50;99.90
19898;DHT22;10111;50.814;4.572;2023-07-13T07:34:57;21.50;99.90
19898;DHT22;10111;50.814;4.572;2023-07-13T07:37:23;21.50;99.90
19898;DHT22;10111;50.814;4.572;2023-07-13T07:39:49;21.60;99.90
19898;DHT22;10111;50.814;4.572;2023-07-13T07:42:15;21.70;99.90
19898;DHT22;10111;50.814;4.572;2023-07-13T07:44:41;21.80;99.90
19898;DHT22;10111;50.814;4.572;2023-07-13T07:47:07;21.90;99.90
19898;DHT22;10111;50.814;4.572;2023-07-13T07:49:34;21.80;99.90
19898;DHT22;10111;50.814;4.572;2023-07-13T07:51:59;22.00;99.90
19898;DHT22;10111;50.814;4.572;2023-07-13T07:54:25;22.10;99.90
19898;DHT22;10111;50.814;4.572;2023-07-13T07:56:51;22.10;99.90
19898;DHT22;10111;50.814;4.572;2023-07-13T07:59:16;22.00;99.90
19898;DHT22;10111;50.814;4.572;2023-07-13T08:01:42;21.90;99.90
19898;DHT22;10111;50.814;4.572;2023-07-13T08:04:08;22.00;99.90
19898;DHT22;10111;50.814;4.572;2023-07-13T08:06:34;22.10;99.90
19898;DHT22;10111;50.814;4.572;2023-07-13T08:09:00;22.20;99.90
19898;DHT22;10111;50.814;4.572;2023-07-13T08:11:27;22.50;99.90
19898;DHT22;10111;50.814;4.572;2023-07-13T08:13:53;22.60;99.90
19898;DHT22;10111;50.814;4.572;2023-07-13T08:16:19;22.50;99.90
19898;DHT22;10111;50.814;4.572;2023-07-13T08:18:45;22.80;99.90
19898;DHT22;10111;50.814;4.572;2023-07-13T08:21:10;23.00;99.90
19898;DHT22;10111;50.814;4.572;2023-07-13T08:23:36;23.10;99.90
19898;DHT22;10111;50.814;4.572;2023-07-13T08:26:02;23.20;99.90
19898;DHT22;10111;50.814;4.572;2023-07-13T08:28:29;23.40;99.90
19898;DHT22;10111;50.814;4.572;2023-07-13T08:31:04;23.20;99.90
19898;DHT22;10111;50.814;4.572;2023-07-13T08:33:30;23.30;99.90
19898;DHT22;10111;50.814;4.572;2023-07-13T08:35:55;23.70;99.90
19898;DHT22;10111;50.814;4.572;2023-07-13T08:38:21;23.90;99.90
19898;DHT22;10111;50.814;4.572;2023-07-13T08:40:56;24.00;99.90
19898;DHT22;10111;50.814;4.572;2023-07-13T08:43:26;24.10;99.90
19898;DHT22;10111;50.814;4.572;2023-07-13T08:45:59;24.00;99.90
19898;DHT22;10111;50.814;4.572;2023-07-13T08:48:33;24.10;99.90
19898;DHT22;10111;50.814;4.572;2023-07-13T08:53:55;24.10;99.90
19898;DHT22;10111;50.814;4.572;2023-07-13T08:56:25;23.80;99.90
19898;DHT22;10111;50.814;4.572;2023-07-13T08:58:57;23.90;99.90
19898;DHT22;10111;50.814;4.572;2023-07-13T09:02:05;24.20;99.90
19898;DHT22;10111;50.814;4.572;2023-07-13T09:04:54;24.70;99.90
19898;DHT22;10111;50.814;4.572;2023-07-13T09:10:23;25.00;99.90
19898;DHT22;10111;50.814;4.572;2023-07-13T09:13:01;25.20;99.90
19898;DHT22;10111;50.814;4.572;2023-07-13T09:15:44;25.10;99.90
19898;DHT22;10111;50.814;4.572;2023-07-13T09:18:25;24.90;99.90
19898;DHT22;10111;50.814;4.572;2023-07-13T09:21:05;24.90;99.90
19898;DHT22;10111;50.814;4.572;2023-07-13T09:23:35;25.20;99.90
19898;DHT22;10111;50.814;4.572;2023-07-13T09:26:13;25.50;99.90
19898;DHT22;10111;50.814;4.572;2023-07-13T09:28:42;25.70;99.90
19898;DHT22;10111;50.814;4.572;2023-07-13T09:31:33;25.50;99.90
19898;DHT22;10111;50.814;4.572;2023-07-13T09:34:00;25.30;99.90
19898;DHT22;10111;50.814;4.572;2023-07-13T09:36:31;25.50;99.90
19898;DHT22;10111;50.814;4.572;2023-07-13T09:41:54;25.80;99.90
19898;DHT22;10111;50.814;4.572;2023-07-13T09:44:29;25.90;99.90
19898;DHT22;10111;50.814;4.572;2023-07-13T09:46:56;26.00;99.90
19898;DHT22;10111;50.814;4.572;2023-07-13T09:49:26;26.00;99.90
19898;DHT22;10111;50.814;4.572;2023-07-13T09:52:18;25.90;99.90
19898;DHT22;10111;50.814;4.572;2023-07-13T09:54:46;25.70;99.90
19898;DHT22;10111;50.814;4.572;2023-07-13T09:57:19;25.80;99.90
19898;DHT22;10111;50.814;4.572;2023-07-13T09:59:50;26.00;99.90
19898;DHT22;10111;50.814;4.572;2023-07-13T10:02:37;26.20;99.90
19898;DHT22;10111;50.814;4.572;2023-07-13T10:05:14;26.20;99.90
19898;DHT22;10111;50.814;4.572;2023-07-13T10:07:45;26.00;99.90
19898;DHT22;10111;50.814;4.572;2023-07-13T10:10:16;25.80;99.90
19898;DHT22;10111;50.814;4.572;2023-07-13T10:12:43;25.90;99.90
19898;DHT22;10111;50.814;4.572;2023-07-13T10:15:21;26.00;99.90
19898;DHT22;10111;50.814;4.572;2023-07-13T10:17:48;26.00;99.90
19898;DHT22;10111;50.814;4.572;2023-07-13T10:20:16;26.10;99.90
19898;DHT22;10111;50.814;4.572;2023-07-13T10:25:20;26.20;99.90
19898;DHT22;10111;50.814;4.572;2023-07-13T10:27:50;26.10;99.90
19898;DHT22;10111;50.814;4.572;2023-07-13T10:30:22;26.00;99.90
19898;DHT22;10111;50.814;4.572;2023-07-13T10:32:51;25.60;99.90
19898;DHT22;10111;50.814;4.572;2023-07-13T10:35:20;25.40;99.90
19898;DHT22;10111;50.814;4.572;2023-07-13T10:38:05;25.40;99.90
19898;DHT22;10111;50.814;4.572;2023-07-13T10:40:41;25.40;99.90
19898;DHT22;10111;50.814;4.572;2023-07-13T10:43:18;25.20;99.90
19898;DHT22;10111;50.814;4.572;2023-07-13T10:45:46;25.20;99.90
19898;DHT22;10111;50.814;4.572;2023-07-13T10:48:16;25.30;99.90
19898;DHT22;10111;50.814;4.572;2023-07-13T10:50:44;25.30;99.90
19898;DHT22;10111;50.814;4.572;2023-07-13T10:53:27;25.40;99.90
19898;DHT22;10111;50.814;4.572;2023-07-13T10:55:55;25.20;99.90
19898;DHT22;10111;50.814;4.572;2023-07-13T11:01:12;25.60;99.90
19898;DHT22;10111;50.814;4.572;2023-07-13T11:08:52;25.90;99.90
19898;DHT22;10111;50.814;4.572;2023-07-13T11:18:51;26.00;99.90
19898;DHT22;10111;50.814;4.572;2023-07-13T11:21:22;26.10;99.90
19898;DHT22;10111;50.814;4.572;2023-07-13T11:23:54;25.90;99.90
19898;DHT22;10111;50.814;4.572;2023-07-13T11:26:39;25.60;99.90
19898;DHT22;10111;50.814;4.572;2023-07-13T11:32:00;25.50;99.90
19898;DHT22;10111;50.814;4.572;2023-07-13T11:34:38;25.50;99.90
19898;DHT22;10111;50.814;4.572;2023-07-13T11:37:10;25.40;99.90
19898;DHT22;10111;50.814;4.572;2023-07-13T11:39:40;25.60;99.90
19898;DHT22;10111;50.814;4.572;2023-07-13T11:42:12;25.70;99.90
19898;DHT22;10111;50.814;4.572;2023-07-13T11:44:46;25.60;99.90
19898;DHT22;10111;50.814;4.572;2023-07-13T11:47:17;25.60;99.90
19898;DHT22;10111;50.814;4.572;2023-07-13T11:49:49;25.40;99.90
19898;DHT22;10111;50.814;4.572;2023-07-13T11:52:18;25.50;99.90
19898;DHT22;10111;50.814;4.572;2023-07-13T11:54:56;25.50;99.90
19898;DHT22;10111;50.814;4.572;2023-07-13T11:57:33;25.50;99.90
19898;DHT22;10111;50.814;4.572;2023-07-13T12:00:11;25.50;99.90
19898;DHT22;10111;50.814;4.572;2023-07-13T12:02:40;25.50;99.90
19898;DHT22;10111;50.814;4.572;2023-07-13T12:05:11;25.70;99.90
19898;DHT22;10111;50.814;4.572;2023-07-13T12:07:38;25.90;99.90
19898;DHT22;10111;50.814;4.572;2023-07-13T12:10:27;26.10;99.90
19898;DHT22;10111;50.814;4.572;2023-07-13T12:13:00;26.30;99.90
19898;DHT22;10111;50.814;4.572;2023-07-13T12:15:41;26.20;99.90
19898;DHT22;10111;50.814;4.572;2023-07-13T12:18:20;26.20;99.90
19898;DHT22;10111;50.814;4.572;2023-07-13T12:20:47;26.30;99.90
19898;DHT22;10111;50.814;4.572;2023-07-13T12:23:23;26.40;99.90
19898;DHT22;10111;50.814;4.572;2023-07-13T12:25:50;26.30;99.90
19898;DHT22;10111;50.814;4.572;2023-07-13T12:28:45;26.30;99.90
19898;DHT22;10111;50.814;4.572;2023-07-13T12:31:43;26.20;99.90
19898;DHT22;10111;50.814;4.572;2023-07-13T12:34:16;26.00;99.90
19898;DHT22;10111;50.814;4.572;2023-07-13T12:36:56;25.90;99.90
19898;DHT22;10111;50.814;4.572;2023-07-13T12:39:37;25.80;99.90
19898;DHT22;10111;50.814;4.572;2023-07-13T12:45:18;25.70;99.90
19898;DHT22;10111;50.814;4.572;2023-07-13T12:47:48;25.90;99.90
19898;DHT22;10111;50.814;4.572;2023-07-13T12:50:20;26.10;99.90
19898;DHT22;10111;50.814;4.572;2023-07-13T12:52:52;26.30;99.90
19898;DHT22;10111;50.814;4.572;2023-07-13T12:55:19;26.30;99.90
19898;DHT22;10111;50.814;4.572;2023-07-13T12:57:57;26.20;99.90
19898;DHT22;10111;50.814;4.572;2023-07-13T13:00:53;26.10;99.90
19898;DHT22;10111;50.814;4.572;2023-07-13T13:08:55;24.50;99.90
19898;DHT22;10111;50.814;4.572;2023-07-13T13:11:23;23.80;99.90
19898;DHT22;10111;50.814;4.572;2023-07-13T13:13:49;23.00;99.90
19898;DHT22;10111;50.814;4.572;2023-07-13T13:16:31;22.40;99.90
19898;DHT22;10111;50.814;4.572;2023-07-13T13:19:00;22.00;99.90
19898;DHT22;10111;50.814;4.572;2023-07-13T13:21:27;21.70;99.90
19898;DHT22;10111;50.814;4.572;2023-07-13T13:23:53;21.50;99.90
19898;DHT22;10111;50.814;4.572;2023-07-13T13:26:21;21.60;99.90
19898;DHT22;10111;50.814;4.572;2023-07-13T13:28:47;21.80;99.90
19898;DHT22;10111;50.814;4.572;2023-07-13T13:31:15;22.20;99.90
19898;DHT22;10111;50.814;4.572;2023-07-13T13:33:43;22.80;99.90
19898;DHT22;10111;50.814;4.572;2023-07-13T13:36:19;23.40;99.90
19898;DHT22;10111;50.814;4.572;2023-07-13T13:38:46;23.50;99.90
19898;DHT22;10111;50.814;4.572;2023-07-13T13:41:14;23.60;99.90
19898;DHT22;10111;50.814;4.572;2023-07-13T13:43:43;23.80;99.90
19898;DHT22;10111;50.814;4.572;2023-07-13T13:46:24;24.00;99.90
19898;DHT22;10111;50.814;4.572;2023-07-13T13:48:55;24.10;99.90
19898;DHT22;10111;50.814;4.572;2023-07-13T13:51:23;24.30;99.90
19898;DHT22;10111;50.814;4.572;2023-07-13T13:53:49;24.20;99.90
19898;DHT22;10111;50.814;4.572;2023-07-13T13:56:17;24.10;99.90
19898;DHT22;10111;50.814;4.572;2023-07-13T13:58:43;24.20;99.90
19898;DHT22;10111;50.814;4.572;2023-07-13T14:01:16;24.50;99.90
19898;DHT22;10111;50.814;4.572;2023-07-13T14:03:43;24.60;99.90
19898;DHT22;10111;50.814;4.572;2023-07-13T14:06:12;24.60;99.90
19898;DHT22;10111;50.814;4.572;2023-07-13T14:08:38;24.90;99.90
19898;DHT22;10111;50.814;4.572;2023-07-13T14:11:04;25.40;99.90
19898;DHT22;10111;50.814;4.572;2023-07-13T14:13:40;25.70;99.90
19898;DHT22;10111;50.814;4.572;2023-07-13T14:16:11;25.80;99.90
19898;DHT22;10111;50.814;4.572;2023-07-13T14:18:38;25.80;99.90
19898;DHT22;10111;50.814;4.572;2023-07-13T14:21:16;25.70;99.90
19898;DHT22;10111;50.814;4.572;2023-07-13T14:23:44;25.70;99.90
19898;DHT22;10111;50.814;4.572;2023-07-13T14:26:13;25.90;99.90
19898;DHT22;10111;50.814;4.572;2023-07-13T14:28:41;25.90;99.90
19898;DHT22;10111;50.814;4.572;2023-07-13T14:31:09;25.80;99.90
19898;DHT22;10111;50.814;4.572;2023-07-13T14:33:34;25.80;99.90
19898;DHT22;10111;50.814;4.572;2023-07-13T14:36:01;25.60;99.90
19898;DHT22;10111;50.814;4.572;2023-07-13T14:38:27;25.60;99.90
19898;DHT22;10111;50.814;4.572;2023-07-13T14:40:52;25.50;99.90
19898;DHT22;10111;50.814;4.572;2023-07-13T14:43:18;25.20;99.90
19898;DHT22;10111;50.814;4.572;2023-07-13T14:45:47;25.10;99.90
19898;DHT22;10111;50.814;4.572;2023-07-13T14:48:23;24.90;99.90
19898;DHT22;10111;50.814;4.572;2023-07-13T14:50:54;24.80;99.90
19898;DHT22;10111;50.814;4.572;2023-07-13T14:53:22;24.80;99.90
19898;DHT22;10111;50.814;4.572;2023-07-13T14:55:48;24.70;99.90
19898;DHT22;10111;50.814;4.572;2023-07-13T14:58:13;24.60;99.90
19898;DHT22;10111;50.814;4.572;2023-07-13T15:00:39;24.60;99.90
19898;DHT22;10111;50.814;4.572;2023-07-13T15:03:21;24.50;99.90
19898;DHT22;10111;50.814;4.572;2023-07-13T15:05:47;24.60;99.90
19898;DHT22;10111;50.814;4.572;2023-07-13T15:08:13;24.80;99.90
19898;DHT22;10111;50.814;4.572;2023-07-13T15:10:40;25.00;99.90
19898;DHT22;10111;50.814;4.572;2023-07-13T15:13:20;25.10;99.90
19898;DHT22;10111;50.814;4.572;2023-07-13T15:15:51;25.20;99.90
19898;DHT22;10111;50.814;4.572;2023-07-13T15:18:23;25.30;99.90
19898;DHT22;10111;50.814;4.572;2023-07-13T15:20:51;25.40;99.90
19898;DHT22;10111;50.814;4.572;2023-07-13T15:23:18;25.50;99.90
19898;DHT22;10111;50.814;4.572;2023-07-13T15:25:44;25.40;99.90
19898;DHT22;10111;50.814;4.572;2023-07-13T15:28:10;25.40;99.90
19898;DHT22;10111;50.814;4.572;2023-07-13T15:30:48;25.20;99.90
19898;DHT22;10111;50.814;4.572;2023-07-13T15:33:27;25.10;99.90
19898;DHT22;10111;50.814;4.572;2023-07-13T15:35:54;25.00;99.90
19898;DHT22;10111;50.814;4.572;2023-07-13T15:38:22;24.90;99.90
19898;DHT22;10111;50.814;4.572;2023-07-13T15:40:49;25.10;99.90
19898;DHT22;10111;50.814;4.572;2023-07-13T15:43:16;25.20;99.90
19898;DHT22;10111;50.814;4.572;2023-07-13T15:45:43;25.30;99.90
19898;DHT22;10111;50.814;4.572;2023-07-13T15:48:22;25.30;99.90
19898;DHT22;10111;50.814;4.572;2023-07-13T15:50:53;25.30;99.90
19898;DHT22;10111;50.814;4.572;2023-07-13T15:53:23;25.30;99.90
19898;DHT22;10111;50.814;4.572;2023-07-13T15:55:49;25.10;99.90
19898;DHT22;10111;50.814;4.572;2023-07-13T15:58:16;24.90;99.90
19898;DHT22;10111;50.814;4.572;2023-07-13T16:00:42;24.90;99.90
19898;DHT22;10111;50.814;4.572;2023-07-13T16:03:08;24.90;99.90
19898;DHT22;10111;50.814;4.572;2023-07-13T16:05:34;24.90;99.90
19898;DHT22;10111;50.814;4.572;2023-07-13T16:08:00;24.80;99.90
19898;DHT22;10111;50.814;4.572;2023-07-13T16:10:37;24.80;99.90
19898;DHT22;10111;50.814;4.572;2023-07-13T16:13:13;24.80;99.90
19898;DHT22;10111;50.814;4.572;2023-07-13T16:15:39;24.60;99.90
19898;DHT22;10111;50.814;4.572;2023-07-13T16:18:13;24.50;99.90
19898;DHT22;10111;50.814;4.572;2023-07-13T16:20:39;24.60;99.90